Effective Sunday, March 17, 2024, the National Weather Service National Data Buoy Center will discontinue its Dial-A-Buoy Interactive Voice Response system. For more information, see Service Change Notice 24-06 (PDF).

Station LORO1 - Lorain Harbor, OH Image indicating link to RSS feed of recent meteorological observations for station LORO1


Conditions at LORO1 as of
(11:50 pm EST on 02/21/2024)
0450 GMT on 02/22/2024:
     

Click on the graph icon in the table below to see a time series plot of the last five days of that observation.

5-day plot - Wind Direction Wind Direction (WDIR):SSW ( 210 deg true )
5-day plot - Wind Speed Wind Speed (WSPD): 11 kts
5-day plot - Wind Gust Wind Gust (GST): 14 kts
5-day plot - Air Temperature Air Temperature (ATMP): 57.7 °F
5-day plot - Wind Speed at 10 Meters Wind Speed at 10 meters (WSPD10M): 14 kts
5-day plot - Wind Speed at 20 Meters Wind Speed at 20 meters (WSPD20M): 14 kts
5-day plot -  Wind Speed, Wind Gust and Atmospheric Pressure Combined plot of Wind Speed, Gust, and Air Pressure
Previous observations
TIME
(EST)
5-day plot - Wind Direction
WDIR
 
5-day plot - Wind Speed
WSPD
kts
5-day plot - Wind Gust
GST
kts
5-day plot - Wave Height
WVHT
ft
5-day plot - Dominant Wave Period
DPD
sec
5-day plot - Average Wave Period
APD
sec
5-day plot - Mean Wave Direction
MWD
 
5-day plot - Atmospheric Pressure
PRES
in
5-day plot - Pressure Tendency
PTDY
in
5-day plot - Air Temperature
ATMP
°F
5-day plot - Water Temperature
WTMP
°F
5-day plot - Dew Point
DEWP
°F
5-day plot - Salinity
SAL
psu
5-day plot - Visibility
VIS
nmi
5-day plot - Tide (above MLLW)
TIDE
ft
2024-02-21 11:40 pmSSW 10 14------ 57.4-----
2024-02-21 11:30 pmSSW 10 11------ 57.0-----
2024-02-21 11:20 pmSSW 10 12------ 56.8-----
2024-02-21 11:10 pmSSW 10 12------ 57.2-----
2024-02-21 11:00 pmSSW 11 14------ 56.7-----
2024-02-21 10:50 pmSSW 10 13------ 56.5-----
2024-02-21 10:40 pm S 9 13------ 56.1-----
2024-02-21 10:30 pm S 11 13------ 56.5-----
2024-02-21 10:20 pm S 10 14------ 56.3-----
2024-02-21 10:10 pm S 11 15------ 56.3-----
2024-02-21 10:00 pm S 12 14------ 55.6-----
2024-02-21 09:50 pm S 12 14------ 56.3-----
2024-02-21 09:40 pmSSW 13 16------ 56.3-----
2024-02-21 09:30 pm S 12 16------ 55.2-----
2024-02-21 09:20 pmSSW 11 15------ 55.4-----
2024-02-21 09:10 pm S 11 13------ 55.6-----
2024-02-21 09:00 pm S 10 12------ 55.2-----
2024-02-21 08:50 pm S 11 14------ 55.6-----
2024-02-21 08:40 pm S 10 13------ 55.0-----
2024-02-21 08:30 pm S 10 12------ 55.2-----
2024-02-21 08:20 pm S 10 11------ 55.4-----
2024-02-21 08:10 pm S 9 10------ 55.2-----
2024-02-21 08:00 pm S 8 10------ 55.4-----
2024-02-21 07:50 pm S 9 10------ 55.9-----
2024-02-21 07:40 pm S 8 9------ 55.8-----
2024-02-21 07:30 pm S 7 10------ 56.3-----
2024-02-21 07:20 pm S 7 9------ 56.3-----
2024-02-21 07:10 pmSSW 7 8------ 56.5-----
2024-02-21 07:00 pm S 8 10------ 56.8-----
2024-02-21 06:50 pm S 9 11------ 57.0-----
2024-02-21 06:40 pm S 9 10------ 57.2-----
2024-02-21 06:30 pm S 9 11------ 57.0-----
2024-02-21 06:20 pm S 8 10------ 57.6-----
2024-02-21 06:10 pm S 9 11------ 57.4-----
2024-02-21 06:00 pm S 9 11------ 57.6-----
2024-02-21 05:50 pmSSW 9 10------ 58.1-----
2024-02-21 05:40 pm S 9 12------ 57.7-----
2024-02-21 05:30 pm S 9 12------ 58.1-----
2024-02-21 05:20 pm S 11 14------ 58.6-----
2024-02-21 05:10 pm S 12 13------ 58.5-----
2024-02-21 05:00 pm S 11 14------ 59.2-----
2024-02-21 04:50 pmSSW 13 17------ 58.8-----
2024-02-21 04:40 pmSSW 14 17------ 59.2-----
2024-02-21 04:30 pmSSW 13 16------ 58.3-----
2024-02-21 04:20 pmSSW 12 14------ 58.8-----
2024-02-21 04:10 pmSSW 11 14------ 58.5-----
2024-02-21 04:00 pmSSW 12 17------ 58.8-----
2024-02-21 03:50 pmSSW 13 16------ 58.1-----
2024-02-21 03:40 pmSSW 12 14------ 59.0-----
2024-02-21 03:30 pmSSW 13 16------ 57.7-----
2024-02-21 03:20 pmSSW 14 17------ 57.7-----
2024-02-21 03:10 pmSSW 13 18------ 58.5-----
2024-02-21 03:00 pmSSW 13 18------ 56.1-----
2024-02-21 02:50 pmSSW 15 17------ 58.3-----
2024-02-21 02:40 pmSSW 13 17------ 57.0-----
2024-02-21 02:30 pmSSW 13 16------ 57.2-----
2024-02-21 02:20 pmSSW 14 16------ 57.0-----
2024-02-21 02:10 pmSSW 11 15------ 56.1-----
2024-02-21 02:00 pm SW 11 15------ 56.1-----
2024-02-21 01:50 pm SW 14 19------ 55.9-----
2024-02-21 01:40 pm SW 13 17------ 55.4-----
2024-02-21 01:30 pm SW 16 18------ 56.7-----
2024-02-21 01:20 pm SW 15 18------ 56.5-----
2024-02-21 01:10 pm SW 15 19------ 56.5-----
2024-02-21 01:00 pm SW 15 20------ 55.4-----
2024-02-21 12:50 pm SW 11 16------ 55.6-----
2024-02-21 12:40 pm SW 11 16------ 54.9-----
2024-02-21 12:30 pmSSW 12 14------ 55.2-----
2024-02-21 12:20 pmSSW 9 13------ 54.1-----
2024-02-21 12:10 pmSSW 13 16------ 54.5-----
2024-02-21 12:00 pmSSW 10 13------ 54.0-----
2024-02-21 11:50 amSSW 10 12------ 53.2-----
2024-02-21 11:40 amSSW 10 13------ 52.5-----
2024-02-21 11:30 amSSW 10 14------ 52.3-----
2024-02-21 11:20 am S 10 14------ 51.3-----
2024-02-21 11:10 am S 10 12------ 51.1-----
2024-02-21 11:00 amSSW 9 11------ 50.9-----
2024-02-21 10:50 amSSW 10 12------ 50.4-----
2024-02-21 10:40 amSSW 9 12------ 50.0-----
2024-02-21 10:30 amSSW 8 12------ 49.8-----
2024-02-21 10:20 amSSW 10 13------ 49.5-----
2024-02-21 10:10 amSSW 10 12------ 48.7-----
2024-02-21 10:00 amSSW 12 13------ 48.0-----
2024-02-21 09:50 amSSW 10 15------ 47.3-----
2024-02-21 09:40 amSSW 10 13------ 46.6-----
2024-02-21 09:30 am S 10 12------ 45.5-----
2024-02-21 09:20 am S 10 13------ 44.6-----
2024-02-21 09:10 amSSW 11 13------ 44.1-----
2024-02-21 09:00 amSSW 11 13------ 43.7-----
2024-02-21 08:50 am S 11 13------ 43.0-----
2024-02-21 08:40 am S 12 13------ 41.7-----
2024-02-21 08:30 am S 12 14------ 41.4-----
2024-02-21 08:20 am S 12 13------ 41.0-----
2024-02-21 08:10 am S 11 13------ 40.3-----
2024-02-21 08:00 am S 10 12------ 39.9-----
2024-02-21 07:50 am S 10 13------ 39.6-----
2024-02-21 07:40 am S 11 12------ 39.2-----
2024-02-21 07:30 am S 11 13------ 39.2-----
2024-02-21 07:20 am S 11 12------ 39.2-----
2024-02-21 07:10 am S 11 12------ 39.2-----
2024-02-21 07:00 am S 10 12------ 39.4-----
2024-02-21 06:50 am S 10 12------ 39.6-----
2024-02-21 06:40 am S 10 12------ 39.9-----
2024-02-21 06:30 am S 10 12------ 39.7-----
2024-02-21 06:20 am S 10 12------ 39.9-----
2024-02-21 06:10 am S 10 13------ 39.7-----
2024-02-21 06:00 am S 11 14------ 39.9-----
2024-02-21 05:50 am S 10 13------ 39.9-----
2024-02-21 05:40 am S 10 12------ 39.9-----
2024-02-21 05:30 am S 10 12------ 39.9-----
2024-02-21 05:20 am S 10 12------ 39.9-----
2024-02-21 05:10 am S 10 11------ 39.9-----
2024-02-21 05:00 am S 10 12------ 40.1-----
2024-02-21 04:50 am S 10 11------ 40.3-----
2024-02-21 04:40 am S 9 11------ 39.9-----
2024-02-21 04:30 am S 10 11------ 40.5-----
2024-02-21 04:20 am S 10 12------ 40.8-----
2024-02-21 04:10 am S 9 11------ 40.6-----
2024-02-21 04:00 am S 10 11------ 40.8-----
2024-02-21 03:50 am S 10 11------ 41.2-----
2024-02-21 03:40 am S 10 11------ 40.8-----
2024-02-21 03:30 am S 10 11------ 41.0-----
2024-02-21 03:20 am S 9 10------ 40.6-----
2024-02-21 03:10 am S 9 10------ 40.6-----
2024-02-21 03:00 am S 9 10------ 41.0-----
2024-02-21 02:50 am S 8 10------ 40.8-----
2024-02-21 02:40 am S 8 9------ 41.0-----
2024-02-21 02:30 am S 7 9------ 41.0-----
2024-02-21 02:20 am S 8 8------ 41.0-----
2024-02-21 02:10 am S 8 9------ 41.0-----
2024-02-21 02:00 am S 7 8------ 41.0-----
2024-02-21 01:50 am S 7 9------ 41.0-----
2024-02-21 01:40 am S 7 8------ 41.0-----
2024-02-21 01:30 am S 7 8------ 40.5-----
2024-02-21 01:20 am S 7 7------ 40.3-----
2024-02-21 01:10 am S 7 7------ 40.3-----
2024-02-21 01:00 am S 7 8------ 40.5-----
2024-02-21 12:50 am S 7 7------ 40.3-----
2024-02-21 12:40 am S 6 7------ 40.3-----
2024-02-21 12:30 am S 6 7------ 40.6-----
2024-02-21 12:20 am S 5 6------ 40.3-----
2024-02-21 12:10 am S 5 5------ 40.3-----
2024-02-21 12:00 amSSE 4 4------ 39.2-----
2024-02-20 11:50 pmSSE 3 3------ 38.7-----